sensor_id;sensor_type;location;lat;lon;timestamp;P1;durP1;ratioP1;P2;durP2;ratioP2
17261;SDS011;9873;52.236;21.002;2023-09-07T00:07:20;6.97;;;3.75;;
17261;SDS011;9873;52.236;21.002;2023-09-07T00:17:27;6.03;;;3.83;;
17261;SDS011;9873;52.236;21.002;2023-09-07T00:27:35;6.68;;;3.83;;
17261;SDS011;9873;52.236;21.002;2023-09-07T00:37:37;8.65;;;5.65;;
17261;SDS011;9873;52.236;21.002;2023-09-07T00:47:40;9.18;;;5.68;;
17261;SDS011;9873;52.236;21.002;2023-09-07T00:57:45;10.57;;;6.53;;
17261;SDS011;9873;52.236;21.002;2023-09-07T01:07:53;10.80;;;6.18;;
17261;SDS011;9873;52.236;21.002;2023-09-07T01:17:56;12.43;;;6.13;;
17261;SDS011;9873;52.236;21.002;2023-09-07T01:28:20;8.85;;;5.72;;
17261;SDS011;9873;52.236;21.002;2023-09-07T01:38:24;17.77;;;6.32;;
17261;SDS011;9873;52.236;21.002;2023-09-07T01:48:29;11.40;;;6.53;;
17261;SDS011;9873;52.236;21.002;2023-09-07T01:58:34;11.13;;;6.40;;
17261;SDS011;9873;52.236;21.002;2023-09-07T02:08:37;10.90;;;6.93;;
17261;SDS011;9873;52.236;21.002;2023-09-07T02:18:39;13.30;;;7.32;;
17261;SDS011;9873;52.236;21.002;2023-09-07T02:28:53;13.13;;;6.85;;
17261;SDS011;9873;52.236;21.002;2023-09-07T02:38:55;13.70;;;8.05;;
17261;SDS011;9873;52.236;21.002;2023-09-07T02:48:58;13.07;;;7.70;;
17261;SDS011;9873;52.236;21.002;2023-09-07T02:59:01;13.00;;;8.20;;
17261;SDS011;9873;52.236;21.002;2023-09-07T03:09:06;11.68;;;8.48;;
17261;SDS011;9873;52.236;21.002;2023-09-07T03:19:15;15.27;;;9.25;;
17261;SDS011;9873;52.236;21.002;2023-09-07T03:29:18;14.27;;;9.23;;
17261;SDS011;9873;52.236;21.002;2023-09-07T03:39:21;13.60;;;9.10;;
17261;SDS011;9873;52.236;21.002;2023-09-07T03:49:25;13.55;;;9.57;;
17261;SDS011;9873;52.236;21.002;2023-09-07T03:59:27;18.50;;;9.77;;
17261;SDS011;9873;52.236;21.002;2023-09-07T04:09:32;13.48;;;10.35;;
17261;SDS011;9873;52.236;21.002;2023-09-07T04:19:39;11.68;;;9.68;;
17261;SDS011;9873;52.236;21.002;2023-09-07T04:29:45;15.20;;;10.05;;
17261;SDS011;9873;52.236;21.002;2023-09-07T04:39:54;16.13;;;10.40;;
17261;SDS011;9873;52.236;21.002;2023-09-07T04:49:58;15.25;;;10.85;;
17261;SDS011;9873;52.236;21.002;2023-09-07T05:00:01;13.38;;;10.90;;
17261;SDS011;9873;52.236;21.002;2023-09-07T05:10:05;15.70;;;12.07;;
17261;SDS011;9873;52.236;21.002;2023-09-07T05:20:10;15.07;;;11.13;;
17261;SDS011;9873;52.236;21.002;2023-09-07T05:30:16;17.77;;;12.23;;
17261;SDS011;9873;52.236;21.002;2023-09-07T05:40:21;27.25;;;14.25;;
17261;SDS011;9873;52.236;21.002;2023-09-07T05:50:26;18.92;;;15.40;;
17261;SDS011;9873;52.236;21.002;2023-09-07T06:00:34;18.05;;;13.50;;
17261;SDS011;9873;52.236;21.002;2023-09-07T06:10:37;20.83;;;14.48;;
17261;SDS011;9873;52.236;21.002;2023-09-07T06:20:42;20.58;;;14.00;;
17261;SDS011;9873;52.236;21.002;2023-09-07T06:30:44;20.85;;;13.35;;
17261;SDS011;9873;52.236;21.002;2023-09-07T06:40:47;21.27;;;12.77;;
17261;SDS011;9873;52.236;21.002;2023-09-07T06:50:57;19.35;;;12.23;;
17261;SDS011;9873;52.236;21.002;2023-09-07T07:01:07;16.92;;;11.70;;
17261;SDS011;9873;52.236;21.002;2023-09-07T07:11:10;28.42;;;11.80;;
17261;SDS011;9873;52.236;21.002;2023-09-07T07:21:14;21.02;;;13.20;;
17261;SDS011;9873;52.236;21.002;2023-09-07T07:31:17;18.42;;;11.57;;
17261;SDS011;9873;52.236;21.002;2023-09-07T07:41:20;18.55;;;11.43;;
17261;SDS011;9873;52.236;21.002;2023-09-07T07:51:28;16.33;;;12.20;;
17261;SDS011;9873;52.236;21.002;2023-09-07T08:01:30;22.73;;;12.50;;
17261;SDS011;9873;52.236;21.002;2023-09-07T08:11:35;19.98;;;12.32;;
17261;SDS011;9873;52.236;21.002;2023-09-07T08:21:42;19.33;;;11.85;;
17261;SDS011;9873;52.236;21.002;2023-09-07T08:31:51;19.13;;;11.70;;
17261;SDS011;9873;52.236;21.002;2023-09-07T08:41:53;15.90;;;11.85;;
17261;SDS011;9873;52.236;21.002;2023-09-07T08:52:03;14.95;;;10.00;;
17261;SDS011;9873;52.236;21.002;2023-09-07T09:02:08;13.82;;;9.25;;
17261;SDS011;9873;52.236;21.002;2023-09-07T09:12:13;20.30;;;8.98;;
17261;SDS011;9873;52.236;21.002;2023-09-07T09:22:17;11.35;;;7.63;;
17261;SDS011;9873;52.236;21.002;2023-09-07T09:32:22;11.00;;;6.97;;
17261;SDS011;9873;52.236;21.002;2023-09-07T09:42:27;10.25;;;6.00;;
17261;SDS011;9873;52.236;21.002;2023-09-07T09:52:33;8.48;;;5.90;;
17261;SDS011;9873;52.236;21.002;2023-09-07T10:02:38;8.40;;;5.13;;
17261;SDS011;9873;52.236;21.002;2023-09-07T10:12:52;10.43;;;4.65;;
17261;SDS011;9873;52.236;21.002;2023-09-07T10:23:05;7.35;;;4.00;;
17261;SDS011;9873;52.236;21.002;2023-09-07T10:33:21;4.90;;;3.78;;
17261;SDS011;9873;52.236;21.002;2023-09-07T10:43:30;6.53;;;3.58;;
17261;SDS011;9873;52.236;21.002;2023-09-07T10:53:34;4.97;;;3.55;;
17261;SDS011;9873;52.236;21.002;2023-09-07T11:03:37;5.20;;;4.32;;
17261;SDS011;9873;52.236;21.002;2023-09-07T11:13:40;5.78;;;4.10;;
17261;SDS011;9873;52.236;21.002;2023-09-07T11:23:42;4.20;;;3.45;;
17261;SDS011;9873;52.236;21.002;2023-09-07T11:33:46;3.45;;;3.15;;
17261;SDS011;9873;52.236;21.002;2023-09-07T11:43:50;5.53;;;3.30;;
17261;SDS011;9873;52.236;21.002;2023-09-07T11:53:55;3.80;;;3.20;;
17261;SDS011;9873;52.236;21.002;2023-09-07T12:03:58;4.28;;;3.75;;
17261;SDS011;9873;52.236;21.002;2023-09-07T12:14:05;6.40;;;3.25;;
17261;SDS011;9873;52.236;21.002;2023-09-07T12:24:12;4.53;;;2.70;;
17261;SDS011;9873;52.236;21.002;2023-09-07T12:34:17;4.63;;;3.05;;
17261;SDS011;9873;52.236;21.002;2023-09-07T12:44:21;3.33;;;2.85;;
17261;SDS011;9873;52.236;21.002;2023-09-07T12:54:24;3.15;;;2.25;;
17261;SDS011;9873;52.236;21.002;2023-09-07T13:04:26;4.40;;;2.78;;
17261;SDS011;9873;52.236;21.002;2023-09-07T13:14:28;3.22;;;2.33;;
17261;SDS011;9873;52.236;21.002;2023-09-07T13:24:37;4.70;;;2.45;;
17261;SDS011;9873;52.236;21.002;2023-09-07T13:34:39;4.15;;;2.63;;
17261;SDS011;9873;52.236;21.002;2023-09-07T13:44:42;2.70;;;2.25;;
17261;SDS011;9873;52.236;21.002;2023-09-07T13:54:51;2.78;;;2.58;;
17261;SDS011;9873;52.236;21.002;2023-09-07T14:04:53;2.60;;;2.20;;
17261;SDS011;9873;52.236;21.002;2023-09-07T14:14:56;3.92;;;2.28;;
17261;SDS011;9873;52.236;21.002;2023-09-07T14:25:01;3.17;;;2.40;;
17261;SDS011;9873;52.236;21.002;2023-09-07T14:35:07;3.30;;;2.50;;
17261;SDS011;9873;52.236;21.002;2023-09-07T14:45:13;2.67;;;2.40;;
17261;SDS011;9873;52.236;21.002;2023-09-07T14:55:18;4.47;;;2.15;;
17261;SDS011;9873;52.236;21.002;2023-09-07T15:05:28;2.50;;;2.30;;
17261;SDS011;9873;52.236;21.002;2023-09-07T15:15:31;6.05;;;2.53;;
17261;SDS011;9873;52.236;21.002;2023-09-07T15:25:39;2.22;;;2.00;;
17261;SDS011;9873;52.236;21.002;2023-09-07T15:35:43;2.88;;;2.40;;
17261;SDS011;9873;52.236;21.002;2023-09-07T15:45:48;4.55;;;2.58;;
17261;SDS011;9873;52.236;21.002;2023-09-07T15:55:53;6.50;;;2.90;;
17261;SDS011;9873;52.236;21.002;2023-09-07T16:05:55;3.58;;;2.30;;
17261;SDS011;9873;52.236;21.002;2023-09-07T16:15:59;5.10;;;2.80;;
17261;SDS011;9873;52.236;21.002;2023-09-07T16:26:05;4.95;;;2.72;;
17261;SDS011;9873;52.236;21.002;2023-09-07T16:36:12;3.55;;;2.50;;
17261;SDS011;9873;52.236;21.002;2023-09-07T16:46:19;4.45;;;2.60;;
17261;SDS011;9873;52.236;21.002;2023-09-07T16:56:24;3.25;;;2.75;;
17261;SDS011;9873;52.236;21.002;2023-09-07T17:06:32;8.98;;;3.00;;
17261;SDS011;9873;52.236;21.002;2023-09-07T17:16:37;5.80;;;2.75;;
17261;SDS011;9873;52.236;21.002;2023-09-07T17:26:42;2.95;;;2.65;;
17261;SDS011;9873;52.236;21.002;2023-09-07T17:36:47;4.80;;;2.67;;
17261;SDS011;9873;52.236;21.002;2023-09-07T17:46:49;7.57;;;3.88;;
17261;SDS011;9873;52.236;21.002;2023-09-07T17:56:52;5.95;;;3.30;;
17261;SDS011;9873;52.236;21.002;2023-09-07T18:06:56;7.22;;;2.90;;
17261;SDS011;9873;52.236;21.002;2023-09-07T18:17:01;4.88;;;3.03;;
17261;SDS011;9873;52.236;21.002;2023-09-07T18:27:05;3.08;;;2.72;;
17261;SDS011;9873;52.236;21.002;2023-09-07T18:37:11;5.00;;;3.25;;
17261;SDS011;9873;52.236;21.002;2023-09-07T18:47:13;4.80;;;3.55;;
17261;SDS011;9873;52.236;21.002;2023-09-07T18:57:16;6.95;;;3.25;;
17261;SDS011;9873;52.236;21.002;2023-09-07T19:07:18;6.00;;;3.60;;
17261;SDS011;9873;52.236;21.002;2023-09-07T19:17:25;6.32;;;4.97;;
17261;SDS011;9873;52.236;21.002;2023-09-07T19:27:32;7.25;;;4.40;;
17261;SDS011;9873;52.236;21.002;2023-09-07T19:37:35;6.38;;;3.85;;
17261;SDS011;9873;52.236;21.002;2023-09-07T19:47:40;5.63;;;4.15;;
17261;SDS011;9873;52.236;21.002;2023-09-07T19:57:46;5.75;;;4.53;;
17261;SDS011;9873;52.236;21.002;2023-09-07T20:07:51;7.15;;;5.10;;
17261;SDS011;9873;52.236;21.002;2023-09-07T20:17:54;7.32;;;5.10;;
17261;SDS011;9873;52.236;21.002;2023-09-07T20:27:57;9.30;;;4.82;;
17261;SDS011;9873;52.236;21.002;2023-09-07T20:37:59;7.32;;;4.38;;
17261;SDS011;9873;52.236;21.002;2023-09-07T20:48:02;6.05;;;4.90;;
17261;SDS011;9873;52.236;21.002;2023-09-07T20:58:05;7.50;;;4.90;;
17261;SDS011;9873;52.236;21.002;2023-09-07T21:08:10;6.47;;;4.90;;
17261;SDS011;9873;52.236;21.002;2023-09-07T21:18:15;8.27;;;5.32;;
17261;SDS011;9873;52.236;21.002;2023-09-07T21:28:18;9.20;;;5.67;;
17261;SDS011;9873;52.236;21.002;2023-09-07T21:38:24;7.82;;;4.75;;
17261;SDS011;9873;52.236;21.002;2023-09-07T21:48:29;6.25;;;5.10;;
17261;SDS011;9873;52.236;21.002;2023-09-07T21:58:32;7.88;;;5.03;;
17261;SDS011;9873;52.236;21.002;2023-09-07T22:08:35;7.80;;;5.38;;
17261;SDS011;9873;52.236;21.002;2023-09-07T22:18:40;7.28;;;5.97;;
17261;SDS011;9873;52.236;21.002;2023-09-07T22:28:47;10.25;;;5.03;;
17261;SDS011;9873;52.236;21.002;2023-09-07T22:38:52;7.05;;;5.13;;
17261;SDS011;9873;52.236;21.002;2023-09-07T22:48:57;8.10;;;5.25;;
17261;SDS011;9873;52.236;21.002;2023-09-07T22:59:02;8.77;;;5.13;;
17261;SDS011;9873;52.236;21.002;2023-09-07T23:09:07;7.32;;;5.53;;
17261;SDS011;9873;52.236;21.002;2023-09-07T23:19:13;9.73;;;5.60;;
17261;SDS011;9873;52.236;21.002;2023-09-07T23:29:18;7.72;;;5.30;;
17261;SDS011;9873;52.236;21.002;2023-09-07T23:39:23;7.78;;;5.63;;
17261;SDS011;9873;52.236;21.002;2023-09-07T23:49:28;9.02;;;5.43;;
17261;SDS011;9873;52.236;21.002;2023-09-07T23:59:30;9.88;;;5.25;;
